RoSS Sea — WDE3122 — position and weather

sailwx.info

Track history (hours):
 
Tides and Currents Weather Stations Pressure Air Temp Water Temp Dewpoint Dewpoint Depression Visibility Wind Speed Wind Dir Waves Ship Positions

RoSS Sea

Owner: Kirby Inland Marine, LP, Houston, TX. More information available from US FCC via Universal Licensing System and Coast Guard Vessel Documentation Center.

Last reported at 2016-Sep-22 23:32 UTC. Time now 2016-Sep-26 07:06 UTC.
Position N 38°31' W 074°30'.

Length 30 m; draft 5 m.

Type: Towing. MMSI: 367334360.

Date/timePositionNaut miles runAvg speedWind from/ knotsBaromVisibWave heightAir tempDewpointWater temp
2016-Sep-22 23:32N 38°31' W 074°30'132 4.7
2016-Sep-21 19:34N 40°41' W 074°02'7 2.1
2016-Sep-21 16:28N 40°39' W 074°10'0 0.0
2016-Sep-21 09:31N 40°39' W 074°10'0 0.0
2016-Sep-21 08:31N 40°39' W 074°10'0 0.0
2016-Sep-21 03:28N 40°39' W 074°10'2 2.7
2016-Sep-21 02:33N 40°39' W 074°07'3 0.3
2016-Sep-20 17:31N 40°39' W 074°10'0 0.0
2016-Sep-20 14:33N 40°39' W 074°10'0 0.0
2016-Sep-20 13:33N 40°39' W 074°10'8 2.7
2016-Sep-20 10:33N 40°42' W 074°00'8 4.0
2016-Sep-20 08:33N 40°39' W 074°10'0 0.0
2016-Sep-20 07:31N 40°39' W 074°10'0 0.0
2016-Sep-20 06:31N 40°39' W 074°10'0 0.0
2016-Sep-20 02:25N 40°39' W 074°10'0 0.0
2016-Sep-19 23:31N 40°39' W 074°10'0 0.0
2016-Sep-19 19:28N 40°39' W 074°10'0 0.0
2016-Sep-19 18:31N 40°39' W 074°10'0 0.0
2016-Sep-19 16:28N 40°39' W 074°10'5 2.5
2016-Sep-19 14:33N 40°40' W 074°04'8 1.6
2016-Sep-19 09:30N 40°47' W 073°60'12 3.4
2016-Sep-19 06:06N 40°39' W 074°10'0 0.0
2016-Sep-19 00:07N 40°39' W 074°10'0 0.0
2016-Sep-18 15:33N 40°39' W 074°10'0 0.0
2016-Sep-18 02:31N 40°39' W 074°10'0 0.0
2016-Sep-18 01:31N 40°39' W 074°10'0 0.0
2016-Sep-18 00:25N 40°39' W 074°10'1 0.3
2016-Sep-17 22:32N 40°39' W 074°09'7 0.4
2016-Sep-17 04:10N 40°33' W 074°15'6 1.6
2016-Sep-17 00:16N 40°38' W 074°12'0 0.0
2016-Sep-16 17:31N 40°38' W 074°12'0 0.0
2016-Sep-16 15:28N 40°38' W 074°12'1 0.5
2016-Sep-16 12:24N 40°39' W 074°10'0 0.0
2016-Sep-16 09:33N 40°39' W 074°10'0 0.0
2016-Sep-16 07:33N 40°39' W 074°10'0 0.0
2016-Sep-16 03:30N 40°39' W 074°10'0 0.0
2016-Sep-16 02:33N 40°39' W 074°10'0 0.0
2016-Sep-16 00:27N 40°39' W 074°10'1 0.7
2016-Sep-15 22:33N 40°38' W 074°12'1 1.1
2016-Sep-15 21:20N 40°39' W 074°10'0 0.0
2016-Sep-15 20:32N 40°39' W 074°10'0 0.2
2016-Sep-15 18:32N 40°38' W 074°10'3 0.1
2016-Sep-14 22:33N 40°39' W 074°06'0 0.1
2016-Sep-14 21:33N 40°39' W 074°06'3 0.8
2016-Sep-14 17:33N 40°39' W 074°10'4 4.4
2016-Sep-14 16:33N 40°38' W 074°04'0 0.0
2016-Sep-14 13:33N 40°38' W 074°04'4 4.3
2016-Sep-14 12:33N 40°39' W 074°10'0 0.0
2016-Sep-14 10:33N 40°38' W 074°10'0 0.0
2016-Sep-14 09:33N 40°39' W 074°10'0 0.0
2016-Sep-14 08:30N 40°38' W 074°10'0 0.0
2016-Sep-14 07:33N 40°38' W 074°10'0 0.0
2016-Sep-14 06:33N 40°38' W 074°10'0 0.0
2016-Sep-14 03:31N 40°39' W 074°10'0 0.0
2016-Sep-13 22:32N 40°39' W 074°10'0 0.0
2016-Sep-13 20:32N 40°39' W 074°10'0 0.0
2016-Sep-13 18:11N 40°39' W 074°10'0 0.0
2016-Sep-13 17:32N 40°39' W 074°10'0 0.0
2016-Sep-13 16:29N 40°39' W 074°10'0 0.1
2016-Sep-13 11:33N 40°39' W 074°10'1 0.2
2016-Sep-13 09:29N 40°38' W 074°10'0 0.0
2016-Sep-13 07:32N 40°38' W 074°10'0 0.0
2016-Sep-13 06:29N 40°38' W 074°10'0 0.1
2016-Sep-13 04:34N 40°39' W 074°10'  
Track history (hours):
 
Tides and Currents Weather Stations Pressure Air Temp Water Temp Dewpoint Dewpoint Depression Visibility Wind Speed Wind Dir Waves Ship Positions

RoSS Sea

Owner: Kirby Inland Marine, LP, Houston, TX. More information available from US FCC via Universal Licensing System and Coast Guard Vessel Documentation Center.

Last reported at 2016-Sep-22 23:32 UTC. Time now 2016-Sep-26 07:06 UTC.
Position N 38°31' W 074°30'.

Length 30 m; draft 5 m.

Type: Towing. MMSI: 367334360.

Date/timePositionNaut miles runAvg speedWind from/ knotsBaromVisibWave heightAir tempDewpointWater temp
2016-Sep-22 23:32N 38°31' W 074°30'132 4.7
2016-Sep-21 19:34N 40°41' W 074°02'7 2.1
2016-Sep-21 16:28N 40°39' W 074°10'0 0.0
2016-Sep-21 09:31N 40°39' W 074°10'0 0.0
2016-Sep-21 08:31N 40°39' W 074°10'0 0.0
2016-Sep-21 03:28N 40°39' W 074°10'2 2.7
2016-Sep-21 02:33N 40°39' W 074°07'3 0.3
2016-Sep-20 17:31N 40°39' W 074°10'0 0.0
2016-Sep-20 14:33N 40°39' W 074°10'0 0.0
2016-Sep-20 13:33N 40°39' W 074°10'8 2.7
2016-Sep-20 10:33N 40°42' W 074°00'8 4.0
2016-Sep-20 08:33N 40°39' W 074°10'0 0.0
2016-Sep-20 07:31N 40°39' W 074°10'0 0.0
2016-Sep-20 06:31N 40°39' W 074°10'0 0.0
2016-Sep-20 02:25N 40°39' W 074°10'0 0.0
2016-Sep-19 23:31N 40°39' W 074°10'0 0.0
2016-Sep-19 19:28N 40°39' W 074°10'0 0.0
2016-Sep-19 18:31N 40°39' W 074°10'0 0.0
2016-Sep-19 16:28N 40°39' W 074°10'5 2.5
2016-Sep-19 14:33N 40°40' W 074°04'8 1.6
2016-Sep-19 09:30N 40°47' W 073°60'12 3.4
2016-Sep-19 06:06N 40°39' W 074°10'0 0.0
2016-Sep-19 00:07N 40°39' W 074°10'0 0.0
2016-Sep-18 15:33N 40°39' W 074°10'0 0.0
2016-Sep-18 02:31N 40°39' W 074°10'0 0.0
2016-Sep-18 01:31N 40°39' W 074°10'0 0.0
2016-Sep-18 00:25N 40°39' W 074°10'1 0.3
2016-Sep-17 22:32N 40°39' W 074°09'7 0.4
2016-Sep-17 04:10N 40°33' W 074°15'6 1.6
2016-Sep-17 00:16N 40°38' W 074°12'0 0.0
2016-Sep-16 17:31N 40°38' W 074°12'0 0.0
2016-Sep-16 15:28N 40°38' W 074°12'1 0.5
2016-Sep-16 12:24N 40°39' W 074°10'0 0.0
2016-Sep-16 09:33N 40°39' W 074°10'0 0.0
2016-Sep-16 07:33N 40°39' W 074°10'0 0.0
2016-Sep-16 03:30N 40°39' W 074°10'0 0.0
2016-Sep-16 02:33N 40°39' W 074°10'0 0.0
2016-Sep-16 00:27N 40°39' W 074°10'1 0.7
2016-Sep-15 22:33N 40°38' W 074°12'1 1.1
2016-Sep-15 21:20N 40°39' W 074°10'0 0.0
2016-Sep-15 20:32N 40°39' W 074°10'0 0.2
2016-Sep-15 18:32N 40°38' W 074°10'3 0.1
2016-Sep-14 22:33N 40°39' W 074°06'0 0.1
2016-Sep-14 21:33N 40°39' W 074°06'3 0.8
2016-Sep-14 17:33N 40°39' W 074°10'4 4.4
2016-Sep-14 16:33N 40°38' W 074°04'0 0.0
2016-Sep-14 13:33N 40°38' W 074°04'4 4.3
2016-Sep-14 12:33N 40°39' W 074°10'0 0.0
2016-Sep-14 10:33N 40°38' W 074°10'0 0.0
2016-Sep-14 09:33N 40°39' W 074°10'0 0.0
2016-Sep-14 08:30N 40°38' W 074°10'0 0.0
2016-Sep-14 07:33N 40°38' W 074°10'0 0.0
2016-Sep-14 06:33N 40°38' W 074°10'0 0.0
2016-Sep-14 03:31N 40°39' W 074°10'0 0.0
2016-Sep-13 22:32N 40°39' W 074°10'0 0.0
2016-Sep-13 20:32N 40°39' W 074°10'0 0.0
2016-Sep-13 18:11N 40°39' W 074°10'0 0.0
2016-Sep-13 17:32N 40°39' W 074°10'0 0.0
2016-Sep-13 16:29N 40°39' W 074°10'0 0.1
2016-Sep-13 11:33N 40°39' W 074°10'1 0.2
2016-Sep-13 09:29N 40°38' W 074°10'0 0.0
2016-Sep-13 07:32N 40°38' W 074°10'0 0.0
2016-Sep-13 06:29N 40°38' W 074°10'0 0.1
2016-Sep-13 04:34N 40°39' W 074°10'  

Dump ship's entire track history